Ana Sayfa
METAR-TAF:

METAR-TAF

Havaalanları :

Downtown_Memorial_Airport

Spartanburg, Güney Carolina, Amerika Birleşik Devletleri

Enlem: 34-55N, Boylam: 081-57W, yükseklik: 246 m

Güncel hava durumu gözlemi

Rapor saat 10:15 UTC de 18 dakika önce yapıldı.
Rüzgar kuzeydan 5 kt
Sıcaklık 5°C
Nem 75%
Basınç 1025 hPa
Görüş mesafesi: 16.1 km
4600 ft yükseklikte parçalı çok bulutlu
5500 ft yükseklikte çok bulutlu

METAR: KSPA 111015Z AUTO 36005KT 10SM BKN046 OVC055 05/01 A3027 RMK AO2

Saat: 05:33 (10:33 UTC)


TAF: eksik

4.000'den fazla havaalanı için hava durumu gözlemleri ve tahminleri (METAR ve TAF raporları).

Kullanılabilir istasyonlar harita üzerinde sarı ve kırmızı noktalarla gösterilir.

İstasyonun adını görmek için fareyi noktanın üzerinde gezdirin.

Sonrasında hava gözlem ve tahminlerini görmek için tıklayın.

Haritayı değiştirmek için: yaklaştırmak için siyah artı işaretli yeşil düğmeye ve uzaklaştırmak için de eksi işaretli düğmeye hızla tıklayın; bitişik haritalar için yeşil okları kullanın.


METAR-TAF: